Terminal Aerodrome Forecast
Issued by NWS Central Illinois

Home | Current Version | Previous Version | Text Only | Print | Product List | Glossary On
Versions: 1 2 3 4 5 6 7 8 9 10 11 12 13 14 15 16
000
FTUS43 KILX 271700 RRA
TAFPIA
TAF
KPIA 271742Z 2718/2818 VRB03KT P6SM FEW025 SCT250
     FM280200 VRB03KT P6SM BKN200
     FM280900 10003KT P6SM BKN120
     FM281500 14006KT P6SM BKN070=

USA.gov is the U.S. government's official web portal to all federal, state and local government web resources and services.